Time;durP1;ratioP1;P1;durP2;ratioP2;P2;SDS_P1;SDS_P2;PMS_P1;PMS_P2;Temp;Humidity;BMP_temperature;BMP_pressure;BME280_temperature;BME280_humidity;BME280_pressure;Samples;Min_cycle;Max_cycle;Signal;HPM_P1;HPM_P2
2023/07/29 00:01:49;;;;;;;1.50;1.40;;;18.50;99.90;;;;;;5020104;28;20084;-58
2023/07/29 00:04:15;;;;;;;1.33;1.10;;;18.50;99.90;;;;;;5020381;28;20041;-57
2023/07/29 00:06:40;;;;;;;1.38;1.17;;;18.50;99.90;;;;;;5020418;28;20056;-58
2023/07/29 00:09:06;;;;;;;2.05;1.10;;;18.50;99.90;;;;;;5019844;28;20034;-58
2023/07/29 00:11:33;;;;;;;1.45;1.10;;;18.50;99.90;;;;;;5017904;28;20033;-58
2023/07/29 00:14:00;;;;;;;2.13;1.25;;;18.50;99.90;;;;;;5019220;28;20448;-57
2023/07/29 00:16:25;;;;;;;1.98;1.58;;;18.60;99.90;;;;;;5018324;28;20034;-59
2023/07/29 00:18:51;;;;;;;1.58;1.35;;;18.50;99.90;;;;;;5018967;28;20112;-56
2023/07/29 00:21:17;;;;;;;3.67;1.67;;;18.60;99.90;;;;;;5018218;28;20104;-58
2023/07/29 00:23:43;;;;;;;4.72;1.70;;;18.50;99.90;;;;;;5015965;28;20080;-58
2023/07/29 00:26:08;;;;;;;1.98;1.58;;;18.50;99.90;;;;;;5019169;28;20024;-57
2023/07/29 00:28:34;;;;;;;2.63;1.45;;;18.40;99.90;;;;;;5015893;28;20172;-57
2023/07/29 00:31:00;;;;;;;1.70;1.60;;;18.40;99.90;;;;;;5018783;28;20030;-58
2023/07/29 00:33:25;;;;;;;1.52;1.42;;;18.40;99.90;;;;;;5018425;28;20038;-58
2023/07/29 00:35:51;;;;;;;4.15;1.60;;;18.30;99.90;;;;;;5015662;28;20041;-58
2023/07/29 00:38:17;;;;;;;1.60;1.50;;;18.30;99.90;;;;;;5019272;28;20528;-58
2023/07/29 00:40:42;;;;;;;2.60;1.63;;;18.30;99.90;;;;;;5015503;28;20041;-58
2023/07/29 00:43:08;;;;;;;2.00;1.80;;;18.30;99.90;;;;;;5019127;28;20030;-57
2023/07/29 00:45:34;;;;;;;4.25;2.22;;;18.20;99.90;;;;;;5016219;28;20040;-58
2023/07/29 00:48:01;;;;;;;2.40;1.88;;;18.20;99.90;;;;;;5017031;28;20486;-57
2023/07/29 00:50:28;;;;;;;1.90;1.80;;;18.20;99.90;;;;;;5020938;28;20065;-58
2023/07/29 00:52:55;;;;;;;2.25;1.60;;;18.20;99.90;;;;;;5016608;28;20034;-58
2023/07/29 00:55:21;;;;;;;4.65;1.80;;;18.10;99.90;;;;;;5019503;28;20137;-59
2023/07/29 00:57:48;;;;;;;3.00;1.90;;;18.10;99.90;;;;;;5018412;28;20461;-58
2023/07/29 01:00:16;;;;;;;3.08;2.00;;;18.10;99.90;;;;;;5016388;28;20041;-58
2023/07/29 01:02:43;;;;;;;3.03;1.95;;;18.10;99.90;;;;;;5017796;28;20026;-59
2023/07/29 01:05:11;;;;;;;5.32;2.28;;;18.10;99.90;;;;;;5019870;28;20018;-58
2023/07/29 01:07:45;;;;;;;2.53;1.75;;;18.10;99.90;;;;;;5017579;28;20034;-58
2023/07/29 01:10:26;;;;;;;8.77;2.30;;;18.10;99.90;;;;;;5021623;28;20034;-58
2023/07/29 01:13:15;;;;;;;3.03;1.90;;;18.10;99.90;;;;;;5018370;28;20026;-58
2023/07/29 01:15:58;;;;;;;1.90;1.80;;;18.00;99.90;;;;;;5016524;28;20068;-56
2023/07/29 01:18:26;;;;;;;2.22;1.67;;;18.10;99.90;;;;;;5024490;28;20030;-57
2023/07/29 01:20:56;;;;;;;2.53;1.90;;;18.10;99.90;;;;;;5024608;28;20038;-57
2023/07/29 01:23:29;;;;;;;1.70;1.60;;;18.00;99.90;;;;;;5018021;28;20022;-57
2023/07/29 01:25:54;;;;;;;2.13;1.80;;;18.10;99.90;;;;;;5020683;28;20030;-57
2023/07/29 01:28:20;;;;;;;1.77;1.52;;;18.10;99.90;;;;;;5017607;28;20079;-56
2023/07/29 01:30:51;;;;;;;3.70;2.00;;;18.10;99.90;;;;;;5015989;28;20033;-57
2023/07/29 01:33:25;;;;;;;1.90;1.80;;;18.10;99.90;;;;;;5018971;28;20037;-58
2023/07/29 01:35:56;;;;;;;1.83;1.70;;;18.20;99.90;;;;;;5024750;28;20266;-58
2023/07/29 01:38:31;;;;;;;1.80;1.70;;;18.20;99.90;;;;;;5021088;28;20041;-58
2023/07/29 01:40:57;;;;;;;1.70;1.50;;;18.20;99.90;;;;;;5032765;28;20112;-58
2023/07/29 01:43:25;;;;;;;2.60;2.00;;;18.20;99.90;;;;;;5016634;28;20573;-57
2023/07/29 01:45:51;;;;;;;1.85;1.73;;;18.20;99.90;;;;;;5016755;28;20110;-58
2023/07/29 01:48:17;;;;;;;2.85;1.85;;;18.20;99.90;;;;;;5020779;28;20397;-56
2023/07/29 01:50:43;;;;;;;2.83;1.95;;;18.20;99.90;;;;;;5021636;28;20033;-59
2023/07/29 01:53:08;;;;;;;2.78;1.63;;;18.30;99.90;;;;;;5014781;28;20026;-57
2023/07/29 01:55:34;;;;;;;3.05;2.03;;;18.30;99.90;;;;;;5015444;28;20346;-58
2023/07/29 01:58:00;;;;;;;2.72;1.80;;;18.30;99.90;;;;;;5012636;28;20440;-58
2023/07/29 02:00:25;;;;;;;4.28;2.47;;;18.30;99.90;;;;;;5020076;28;20042;-57
2023/07/29 02:02:51;;;;;;;2.63;1.65;;;18.30;99.90;;;;;;5016978;28;20030;-59
2023/07/29 02:05:16;;;;;;;2.65;1.70;;;18.30;99.90;;;;;;5015387;28;20042;-56
2023/07/29 02:07:42;;;;;;;2.30;2.10;;;18.30;99.90;;;;;;5023658;28;20458;-57
2023/07/29 02:10:08;;;;;;;2.53;2.15;;;18.30;99.90;;;;;;5013735;28;20033;-58
2023/07/29 02:12:34;;;;;;;2.63;2.13;;;18.30;99.90;;;;;;5016228;28;20026;-57
2023/07/29 02:14:59;;;;;;;1.98;1.75;;;18.30;99.90;;;;;;5017458;28;20018;-56
2023/07/29 02:17:26;;;;;;;2.22;1.88;;;18.30;99.90;;;;;;5017697;28;20037;-56
2023/07/29 02:19:51;;;;;;;3.88;1.90;;;18.30;99.90;;;;;;5014704;28;20034;-56
2023/07/29 02:22:18;;;;;;;4.97;1.70;;;18.30;99.90;;;;;;5016311;28;20027;-58
2023/07/29 02:24:44;;;;;;;2.72;1.80;;;18.30;99.90;;;;;;5013347;28;20041;-57
2023/07/29 02:27:10;;;;;;;4.05;2.38;;;18.40;99.90;;;;;;5017530;28;20029;-57
2023/07/29 02:29:36;;;;;;;3.10;2.53;;;18.40;99.90;;;;;;5016893;28;20029;-58
2023/07/29 02:32:03;;;;;;;3.63;2.20;;;18.40;99.90;;;;;;5017768;28;20071;-57
2023/07/29 02:34:29;;;;;;;2.42;1.88;;;18.30;99.90;;;;;;5013823;28;20064;-57
2023/07/29 02:36:54;;;;;;;4.70;1.70;;;18.40;99.90;;;;;;5018942;28;20033;-57
2023/07/29 02:39:20;;;;;;;2.47;2.13;;;18.30;99.90;;;;;;5014321;28;20048;-56
2023/07/29 02:41:46;;;;;;;4.43;2.35;;;18.30;99.90;;;;;;5016894;28;20394;-57
2023/07/29 02:44:11;;;;;;;1.95;1.73;;;18.30;99.90;;;;;;5016745;28;20025;-56
2023/07/29 02:46:37;;;;;;;3.05;1.88;;;18.40;99.90;;;;;;5018580;28;20057;-56
2023/07/29 02:49:03;;;;;;;2.63;1.60;;;18.40;99.90;;;;;;5019568;28;20541;-60
2023/07/29 02:51:30;;;;;;;1.70;1.60;;;18.40;99.90;;;;;;5014107;28;20113;-58
2023/07/29 02:53:55;;;;;;;1.77;1.55;;;18.40;99.90;;;;;;5017654;28;20040;-58
2023/07/29 02:56:21;;;;;;;2.47;1.60;;;18.40;99.90;;;;;;4982782;28;20022;-59
2023/07/29 02:58:47;;;;;;;1.73;1.55;;;18.40;99.90;;;;;;5016058;28;20552;-58
2023/07/29 03:01:13;;;;;;;5.32;2.45;;;18.40;99.90;;;;;;5017911;28;20048;-59
2023/07/29 03:03:39;;;;;;;3.13;2.03;;;18.40;99.90;;;;;;5015090;28;20156;-58
2023/07/29 03:06:07;;;;;;;4.95;1.90;;;18.40;99.90;;;;;;5019780;28;20212;-57
2023/07/29 03:08:33;;;;;;;2.85;1.95;;;18.30;99.90;;;;;;5016792;28;20022;-56
2023/07/29 03:11:04;;;;;;;3.28;1.88;;;18.30;99.90;;;;;;5018054;28;20522;-58
2023/07/29 03:13:30;;;;;;;3.13;2.20;;;18.20;99.90;;;;;;5019813;28;20096;-57
2023/07/29 03:16:08;;;;;;;4.45;1.98;;;18.20;99.90;;;;;;5017413;28;20565;-57
2023/07/29 03:18:34;;;;;;;8.20;2.38;;;18.10;99.90;;;;;;5012416;28;20054;-58
2023/07/29 03:21:00;;;;;;;5.30;2.35;;;18.00;99.90;;;;;;5015129;28;20528;-58
2023/07/29 03:23:25;;;;;;;2.40;2.20;;;17.90;99.90;;;;;;5016832;28;20087;-58
2023/07/29 03:25:53;;;;;;;3.33;2.40;;;17.80;99.90;;;;;;5015628;28;20037;-57
2023/07/29 03:28:18;;;;;;;2.40;2.20;;;17.80;99.90;;;;;;5018322;28;20568;-59
2023/07/29 03:30:44;;;;;;;4.05;2.67;;;17.70;99.90;;;;;;5013728;28;20083;-58
2023/07/29 03:33:09;;;;;;;2.60;2.05;;;17.70;99.90;;;;;;5020474;28;20026;-56
2023/07/29 03:35:35;;;;;;;2.38;2.15;;;17.70;99.90;;;;;;5016492;28;20077;-57
2023/07/29 03:38:01;;;;;;;4.80;2.47;;;17.70;99.90;;;;;;5019534;28;20071;-60
2023/07/29 03:40:26;;;;;;;5.90;2.13;;;17.70;99.90;;;;;;5020402;28;20490;-56
2023/07/29 03:42:52;;;;;;;4.50;2.47;;;17.60;99.90;;;;;;5020697;28;20040;-58
2023/07/29 03:45:18;;;;;;;8.55;2.67;;;17.60;99.90;;;;;;5021652;28;20025;-57
2023/07/29 03:47:43;;;;;;;5.43;2.30;;;17.60;99.90;;;;;;5019629;28;20109;-56
2023/07/29 03:50:09;;;;;;;4.57;2.40;;;17.60;99.90;;;;;;5023639;28;20076;-58
2023/07/29 03:52:35;;;;;;;2.20;2.10;;;17.60;99.90;;;;;;5020412;28;20033;-57
2023/07/29 03:55:00;;;;;;;3.13;2.10;;;17.60;99.90;;;;;;5018701;28;20509;-58
2023/07/29 03:57:26;;;;;;;3.35;2.83;;;17.50;99.90;;;;;;5019629;28;20044;-59
2023/07/29 03:59:52;;;;;;;2.92;2.60;;;17.50;99.90;;;;;;5018709;28;20049;-57
2023/07/29 04:02:17;;;;;;;3.25;2.08;;;17.50;99.90;;;;;;5019379;28;20033;-57
2023/07/29 04:04:47;;;;;;;14.45;2.67;;;17.50;99.90;;;;;;5021550;28;20616;-57
2023/07/29 04:07:12;;;;;;;3.80;2.30;;;17.40;99.90;;;;;;5020577;28;20037;-56
2023/07/29 04:09:38;;;;;;;6.07;2.50;;;17.40;99.90;;;;;;5019699;28;20134;-56
2023/07/29 04:12:04;;;;;;;2.78;2.47;;;17.40;99.90;;;;;;5018557;28;20022;-58
2023/07/29 04:14:30;;;;;;;4.07;3.58;;;17.40;99.90;;;;;;5019420;28;20440;-58
2023/07/29 04:16:56;;;;;;;2.72;2.28;;;17.40;99.90;;;;;;5017732;28;20033;-59
2023/07/29 04:19:22;;;;;;;3.53;3.22;;;17.40;99.90;;;;;;5019709;28;20148;-57
2023/07/29 04:21:47;;;;;;;5.90;3.97;;;17.50;99.90;;;;;;5018888;28;20642;-58
2023/07/29 04:24:13;;;;;;;3.03;2.78;;;17.50;99.90;;;;;;5016941;28;20050;-58
2023/07/29 04:26:39;;;;;;;3.40;3.20;;;17.60;99.90;;;;;;5018796;28;20034;-56
2023/07/29 04:29:05;;;;;;;3.88;3.63;;;17.60;99.90;;;;;;5020927;28;20018;-59
2023/07/29 04:31:30;;;;;;;5.90;3.90;;;17.60;99.90;;;;;;5020838;28;20042;-58
2023/07/29 04:33:56;;;;;;;4.22;3.83;;;17.60;99.90;;;;;;5017955;28;20025;-57
2023/07/29 04:36:22;;;;;;;4.70;4.30;;;17.70;99.90;;;;;;5019466;28;20397;-58
2023/07/29 04:38:47;;;;;;;5.32;4.82;;;17.70;99.90;;;;;;5017642;28;20105;-56
2023/07/29 04:41:13;;;;;;;5.53;4.90;;;17.70;99.90;;;;;;5019020;28;20125;-57
2023/07/29 04:43:38;;;;;;;6.03;4.72;;;17.70;99.90;;;;;;5018437;28;20510;-58
2023/07/29 04:46:08;;;;;;;4.80;4.40;;;17.70;99.90;;;;;;5018237;28;20034;-58
2023/07/29 04:48:33;;;;;;;5.18;4.75;;;17.80;99.90;;;;;;5020212;28;20129;-58
2023/07/29 04:50:59;;;;;;;4.70;4.38;;;17.80;99.90;;;;;;5018626;28;20105;-58
2023/07/29 04:53:25;;;;;;;5.50;4.47;;;17.90;99.90;;;;;;5019428;28;20038;-57
2023/07/29 04:55:50;;;;;;;11.15;4.82;;;17.90;99.90;;;;;;5017122;28;20038;-57
2023/07/29 04:58:16;;;;;;;4.20;3.80;;;18.00;99.90;;;;;;5019706;28;20025;-58
2023/07/29 05:00:42;;;;;;;7.75;4.28;;;18.10;99.90;;;;;;5016442;28;20026;-57
2023/07/29 05:03:07;;;;;;;3.70;3.42;;;18.20;99.90;;;;;;5014065;28;20026;-58
2023/07/29 05:05:33;;;;;;;3.40;3.20;;;18.30;99.90;;;;;;5017923;28;20023;-58
2023/07/29 05:07:58;;;;;;;3.92;3.63;;;18.50;99.90;;;;;;5023492;28;20217;-58
2023/07/29 05:10:24;;;;;;;3.40;3.20;;;18.60;99.90;;;;;;5017977;28;20396;-58
2023/07/29 05:12:50;;;;;;;3.83;3.53;;;18.70;99.90;;;;;;5020048;28;20025;-57
2023/07/29 05:15:16;;;;;;;3.33;2.88;;;18.80;99.90;;;;;;5018043;28;20057;-57
2023/07/29 05:17:41;;;;;;;6.53;3.15;;;18.90;99.90;;;;;;5018657;28;20050;-57
2023/07/29 05:20:08;;;;;;;5.50;2.95;;;19.00;99.90;;;;;;5018599;28;20037;-57
2023/07/29 05:22:33;;;;;;;3.58;3.20;;;19.00;99.90;;;;;;5017228;28;20025;-58
2023/07/29 05:24:59;;;;;;;3.53;3.25;;;19.00;99.90;;;;;;5019129;28;20037;-58
2023/07/29 05:27:24;;;;;;;3.03;2.72;;;18.90;99.90;;;;;;5019985;28;20120;-56
2023/07/29 05:29:50;;;;;;;3.33;3.13;;;18.90;99.90;;;;;;5019381;28;20075;-58
2023/07/29 05:32:15;;;;;;;3.28;2.83;;;18.90;99.90;;;;;;5016717;28;20018;-57
2023/07/29 05:34:42;;;;;;;3.40;3.10;;;19.00;99.90;;;;;;5018630;28;20034;-57
2023/07/29 05:37:07;;;;;;;4.03;3.63;;;19.00;99.90;;;;;;5017142;28;20026;-59
2023/07/29 05:39:33;;;;;;;18.23;4.18;;;18.90;99.90;;;;;;5015038;28;20030;-59
2023/07/29 05:42:02;;;;;;;10.00;5.18;;;18.80;99.90;;;;;;5018044;28;20034;-58
2023/07/29 05:44:28;;;;;;;6.15;3.85;;;18.70;99.90;;;;;;5018438;28;20033;-58
2023/07/29 05:46:53;;;;;;;5.60;4.20;;;18.60;99.90;;;;;;5016524;28;20026;-57
2023/07/29 05:49:19;;;;;;;10.90;5.05;;;18.50;99.90;;;;;;5017059;28;20034;-57
2023/07/29 05:51:44;;;;;;;5.30;4.55;;;18.30;99.90;;;;;;5017415;28;20033;-58
2023/07/29 05:54:10;;;;;;;6.05;4.65;;;18.20;99.90;;;;;;5017799;28;20497;-58
2023/07/29 05:56:36;;;;;;;6.80;4.80;;;18.00;99.90;;;;;;5018514;28;20022;-59
2023/07/29 05:59:01;;;;;;;5.22;4.72;;;17.90;99.90;;;;;;5017641;28;20018;-59
2023/07/29 06:01:27;;;;;;;5.25;4.85;;;17.90;99.90;;;;;;5016231;28;20045;-59
2023/07/29 06:03:52;;;;;;;6.22;4.97;;;17.90;99.90;;;;;;5017537;28;20041;-58
2023/07/29 06:06:18;;;;;;;6.63;4.93;;;17.90;99.90;;;;;;5019559;28;20029;-59
2023/07/29 06:08:44;;;;;;;5.53;5.03;;;18.00;99.90;;;;;;5016960;28;20075;-59
2023/07/29 06:11:09;;;;;;;5.40;4.57;;;18.00;99.90;;;;;;5015146;28;20105;-59
2023/07/29 06:13:35;;;;;;;6.53;5.50;;;18.10;99.90;;;;;;5015114;28;20034;-58
2023/07/29 06:16:01;;;;;;;5.28;4.88;;;18.20;99.90;;;;;;5020191;28;20037;-59
2023/07/29 06:18:26;;;;;;;8.02;5.25;;;18.20;99.90;;;;;;5014887;28;20596;-60
2023/07/29 06:20:52;;;;;;;4.97;4.25;;;18.30;99.90;;;;;;5016535;28;20061;-59
2023/07/29 06:23:18;;;;;;;5.07;4.57;;;18.40;99.90;;;;;;5015281;28;20028;-59
2023/07/29 06:25:43;;;;;;;4.22;3.92;;;18.40;99.90;;;;;;5019705;28;20033;-58
2023/07/29 06:28:09;;;;;;;4.70;4.30;;;18.40;99.90;;;;;;5015913;28;20033;-58
2023/07/29 06:30:35;;;;;;;8.15;3.92;;;18.40;99.90;;;;;;5016866;28;20034;-57
2023/07/29 06:33:02;;;;;;;4.97;4.47;;;18.50;99.90;;;;;;5016177;28;20026;-59
2023/07/29 06:35:28;;;;;;;4.60;3.95;;;18.50;99.90;;;;;;5016334;28;20033;-59
2023/07/29 06:37:54;;;;;;;4.30;3.97;;;18.60;99.90;;;;;;5015610;28;20037;-58
2023/07/29 06:40:19;;;;;;;3.58;3.28;;;18.60;99.90;;;;;;5018365;28;20455;-59
2023/07/29 06:42:45;;;;;;;3.17;2.85;;;18.60;99.90;;;;;;5016347;28;20843;-57
2023/07/29 06:45:11;;;;;;;3.47;3.08;;;18.60;99.90;;;;;;5017297;28;20052;-58
2023/07/29 06:47:37;;;;;;;2.78;2.58;;;18.60;99.90;;;;;;5014460;28;20394;-59
2023/07/29 06:50:03;;;;;;;3.38;2.53;;;18.50;99.90;;;;;;5015389;28;20068;-59
2023/07/29 06:52:28;;;;;;;2.63;2.42;;;18.60;99.90;;;;;;5015077;28;20034;-59
2023/07/29 06:54:54;;;;;;;2.70;2.50;;;18.50;99.90;;;;;;5015859;28;20026;-57
2023/07/29 06:57:20;;;;;;;3.00;2.50;;;18.60;99.90;;;;;;5017307;28;20397;-59
2023/07/29 06:59:45;;;;;;;2.83;2.50;;;18.50;99.90;;;;;;5017422;28;20045;-58
2023/07/29 07:02:11;;;;;;;2.88;2.67;;;18.50;99.90;;;;;;5017168;28;20060;-57
2023/07/29 07:04:36;;;;;;;5.22;4.32;;;18.40;99.90;;;;;;5012756;28;20519;-57
2023/07/29 07:07:02;;;;;;;4.57;4.18;;;18.30;99.90;;;;;;5013224;28;20033;-58
2023/07/29 07:09:28;;;;;;;15.70;4.10;;;18.30;99.90;;;;;;5016792;28;20108;-58
2023/07/29 07:11:53;;;;;;;4.88;4.47;;;18.10;99.90;;;;;;5015121;28;20497;-60
2023/07/29 07:14:19;;;;;;;11.38;5.07;;;18.00;99.90;;;;;;5017674;28;20155;-60
2023/07/29 07:16:45;;;;;;;29.48;6.25;;;18.00;99.90;;;;;;5014272;28;20410;-57
2023/07/29 07:19:11;;;;;;;21.30;6.38;;;17.90;99.90;;;;;;5017313;28;20061;-58
2023/07/29 07:21:36;;;;;;;15.20;6.75;;;17.90;99.90;;;;;;5013973;28;20026;-58
2023/07/29 07:24:02;;;;;;;9.93;5.82;;;17.80;99.90;;;;;;5016860;28;20046;-59
2023/07/29 07:26:28;;;;;;;9.27;5.50;;;17.80;99.90;;;;;;5016777;28;20509;-58
2023/07/29 07:28:53;;;;;;;10.45;6.35;;;17.70;99.90;;;;;;5014632;28;20033;-57
2023/07/29 07:31:19;;;;;;;9.75;5.93;;;17.70;99.90;;;;;;5013421;28;20061;-58
2023/07/29 07:33:45;;;;;;;13.90;6.82;;;17.70;99.90;;;;;;5016011;28;20029;-57
2023/07/29 07:36:10;;;;;;;11.63;7.28;;;17.70;99.90;;;;;;5014158;28;20041;-58
2023/07/29 07:38:36;;;;;;;18.02;7.45;;;17.80;99.90;;;;;;5016822;28;20026;-58
2023/07/29 07:41:02;;;;;;;10.05;7.45;;;17.90;99.90;;;;;;5016702;28;20494;-57
2023/07/29 07:43:28;;;;;;;21.70;8.85;;;17.90;99.90;;;;;;5013851;28;20514;-57
2023/07/29 07:46:00;;;;;;;16.92;8.82;;;17.90;99.90;;;;;;5019669;28;20132;-58
2023/07/29 07:48:27;;;;;;;9.73;6.70;;;17.90;99.90;;;;;;5018712;28;20095;-60
2023/07/29 07:50:53;;;;;;;9.57;7.38;;;17.90;99.90;;;;;;5015310;28;20037;-59
2023/07/29 07:53:19;;;;;;;8.55;6.82;;;17.90;99.90;;;;;;5017184;28;20188;-59
2023/07/29 07:55:45;;;;;;;14.65;7.88;;;18.00;99.90;;;;;;5017410;28;20037;-59
2023/07/29 07:58:11;;;;;;;7.75;4.75;;;18.10;99.90;;;;;;5018918;28;20026;-60
2023/07/29 08:00:36;;;;;;;8.93;6.15;;;18.10;99.90;;;;;;5015936;28;20030;-60
2023/07/29 08:03:02;;;;;;;9.68;6.43;;;18.20;99.90;;;;;;5017736;28;20108;-58
2023/07/29 08:05:28;;;;;;;5.07;4.57;;;18.30;99.90;;;;;;5017056;28;20026;-59
2023/07/29 08:07:53;;;;;;;4.30;3.95;;;18.30;99.90;;;;;;5016582;28;20033;-59
2023/07/29 08:10:19;;;;;;;4.15;3.75;;;18.30;99.90;;;;;;5014221;28;20026;-58
2023/07/29 08:12:44;;;;;;;3.55;3.25;;;18.30;99.90;;;;;;5015902;28;20033;-58
2023/07/29 08:15:10;;;;;;;5.65;2.75;;;18.30;99.90;;;;;;5015165;28;20132;-57
2023/07/29 08:17:36;;;;;;;2.95;2.42;;;18.40;99.90;;;;;;5015333;28;20048;-57
2023/07/29 08:20:01;;;;;;;2.67;2.47;;;18.40;99.90;;;;;;5019368;28;20034;-58
2023/07/29 08:22:27;;;;;;;2.65;2.45;;;18.50;99.90;;;;;;5020010;28;20129;-58
2023/07/29 08:24:52;;;;;;;3.80;2.83;;;18.50;99.90;;;;;;5016739;28;20030;-57
2023/07/29 08:27:18;;;;;;;2.92;2.70;;;18.50;99.90;;;;;;5019314;28;20105;-58
2023/07/29 08:29:44;;;;;;;3.55;2.92;;;18.50;99.90;;;;;;5020497;28;20030;-60
2023/07/29 08:32:09;;;;;;;3.05;2.80;;;18.50;99.90;;;;;;5017642;28;20024;-58
2023/07/29 08:34:35;;;;;;;2.97;2.42;;;18.50;99.90;;;;;;5017312;28;20045;-58
2023/07/29 08:37:01;;;;;;;3.80;2.85;;;18.40;99.90;;;;;;5021558;28;20089;-59
2023/07/29 08:39:28;;;;;;;4.35;2.70;;;18.50;99.90;;;;;;5020564;28;20041;-57
2023/07/29 08:42:10;;;;;;;2.92;2.72;;;18.40;99.90;;;;;;5017651;28;20033;-59
2023/07/29 08:44:43;;;;;;;3.63;3.33;;;18.40;99.90;;;;;;5016764;28;20022;-60
2023/07/29 08:47:09;;;;;;;2.50;2.08;;;18.40;99.90;;;;;;5016156;28;20032;-58
2023/07/29 08:49:37;;;;;;;3.33;2.55;;;18.40;99.90;;;;;;5014318;28;20502;-58
2023/07/29 08:52:04;;;;;;;6.07;3.50;;;18.40;99.90;;;;;;5016881;28;20045;-58
2023/07/29 08:54:30;;;;;;;4.47;3.33;;;18.50;99.90;;;;;;5019733;28;20033;-58
2023/07/29 08:56:56;;;;;;;4.97;3.22;;;18.50;99.90;;;;;;5018805;28;20072;-59
2023/07/29 08:59:23;;;;;;;4.43;3.13;;;18.50;99.90;;;;;;5019775;28;20022;-58
2023/07/29 09:01:49;;;;;;;4.78;3.70;;;18.50;99.90;;;;;;5017394;28;20374;-58
2023/07/29 09:04:15;;;;;;;9.60;4.60;;;18.50;99.90;;;;;;5019658;28;20029;-58
2023/07/29 09:06:43;;;;;;;6.78;6.25;;;18.50;99.90;;;;;;5017104;28;20034;-59
2023/07/29 09:09:09;;;;;;;6.53;5.03;;;18.60;99.90;;;;;;5020092;28;20495;-57
2023/07/29 09:11:35;;;;;;;6.43;4.30;;;18.70;99.90;;;;;;5020693;28;20037;-60
2023/07/29 09:14:01;;;;;;;4.30;3.90;;;18.70;99.90;;;;;;5020887;28;20026;-59
2023/07/29 09:16:27;;;;;;;4.60;4.07;;;18.80;99.90;;;;;;5016182;28;20446;-58
2023/07/29 09:18:52;;;;;;;7.78;4.20;;;18.90;99.90;;;;;;5018015;28;20045;-60
2023/07/29 09:21:23;;;;;;;2.83;2.63;;;18.90;99.90;;;;;;5016753;28;20033;-59
2023/07/29 09:23:50;;;;;;;3.58;2.92;;;18.90;99.90;;;;;;5018278;28;20060;-57
2023/07/29 09:26:25;;;;;;;2.70;2.42;;;18.90;99.90;;;;;;5019593;28;20022;-59
2023/07/29 09:28:58;;;;;;;2.88;2.67;;;18.70;99.90;;;;;;5017861;28;20319;-57
2023/07/29 09:31:25;;;;;;;2.85;2.55;;;18.60;99.90;;;;;;5017867;28;20034;-59
2023/07/29 09:34:04;;;;;;;3.50;3.20;;;18.60;99.90;;;;;;5016412;28;20049;-59
2023/07/29 09:36:33;;;;;;;3.22;3.03;;;18.60;99.90;;;;;;5014749;28;20030;-60
2023/07/29 09:38:59;;;;;;;3.38;3.17;;;18.60;99.90;;;;;;5016618;28;20025;-60
2023/07/29 09:41:31;;;;;;;3.15;2.92;;;18.70;99.90;;;;;;5016158;28;20601;-60
2023/07/29 09:43:57;;;;;;;;;;;18.80;99.90;;;;;;5018754;28;20076;-58
2023/07/29 09:46:25;;;;;;;3.63;2.58;;;19.00;99.90;;;;;;5017376;28;19920;-58
2023/07/29 09:48:54;;;;;;;6.25;2.10;;;18.90;99.90;;;;;;5018242;28;20076;-58
2023/07/29 09:51:20;;;;;;;2.55;1.90;;;19.00;99.90;;;;;;5015825;28;20029;-58
2023/07/29 09:53:47;;;;;;;3.85;2.10;;;18.90;99.90;;;;;;5017410;28;20042;-59
2023/07/29 09:56:14;;;;;;;5.07;2.10;;;18.90;99.90;;;;;;5017813;28;20577;-58
2023/07/29 09:58:42;;;;;;;3.97;2.10;;;18.90;99.90;;;;;;5014891;28;20029;-57
2023/07/29 10:01:08;;;;;;;2.60;1.85;;;19.00;99.90;;;;;;5018665;28;20033;-58
2023/07/29 10:03:35;;;;;;;1.80;1.70;;;19.10;99.90;;;;;;5017284;28;20387;-59
2023/07/29 10:06:05;;;;;;;7.72;1.50;;;19.20;99.90;;;;;;5018555;28;20416;-58
2023/07/29 10:08:31;;;;;;;1.60;1.23;;;19.30;99.90;;;;;;5018731;28;20486;-57
2023/07/29 10:11:00;;;;;;;1.60;1.20;;;19.30;99.90;;;;;;5018590;28;20045;-58
2023/07/29 10:13:26;;;;;;;7.30;1.75;;;19.30;99.90;;;;;;5018031;28;20033;-58
2023/07/29 10:15:54;;;;;;;5.80;1.77;;;19.30;99.90;;;;;;5019577;28;20125;-58
2023/07/29 10:18:21;;;;;;;6.78;2.40;;;19.30;99.90;;;;;;5018043;28;20059;-58
2023/07/29 10:20:50;;;;;;;1.73;1.60;;;19.30;99.90;;;;;;5017938;28;20057;-59
2023/07/29 10:23:18;;;;;;;3.15;1.88;;;19.30;99.90;;;;;;5020838;28;20133;-57
2023/07/29 10:25:49;;;;;;;2.17;1.98;;;19.10;99.90;;;;;;5017400;28;20486;-57
2023/07/29 10:28:15;;;;;;;;;;;19.10;99.90;;;;;;5016983;28;20022;-57
2023/07/29 10:30:41;;;;;;;3.30;1.92;;;19.20;99.90;;;;;;5015987;28;19980;-59
2023/07/29 10:33:07;;;;;;;3.08;2.15;;;19.40;99.90;;;;;;5013975;28;20046;-57
2023/07/29 10:35:34;;;;;;;3.63;1.95;;;19.70;99.90;;;;;;5017118;28;20559;-59
2023/07/29 10:38:00;;;;;;;1.58;1.48;;;20.00;99.90;;;;;;5015799;28;20116;-59
2023/07/29 10:40:26;;;;;;;2.30;1.55;;;20.10;99.90;;;;;;5015137;28;20382;-57
2023/07/29 10:43:11;;;;;;;2.75;1.65;;;20.30;99.90;;;;;;5015336;28;20036;-57
2023/07/29 10:45:39;;;;;;;2.50;1.35;;;20.60;99.90;;;;;;5010948;28;20030;-59
2023/07/29 10:48:33;;;;;;;1.35;1.23;;;20.70;99.90;;;;;;5014581;28;20113;-58
2023/07/29 10:51:21;;;;;;;1.73;1.25;;;21.00;99.90;;;;;;5012694;28;20033;-59
2023/07/29 10:53:47;;;;;;;21.38;2.40;;;21.10;99.90;;;;;;5011534;28;20036;-57
2023/07/29 10:56:13;;;;;;;6.35;1.00;;;21.20;99.90;;;;;;5018126;28;20034;-58
2023/07/29 10:58:38;;;;;;;2.25;1.20;;;21.40;99.90;;;;;;5015892;28;20030;-57
2023/07/29 11:01:13;;;;;;;16.77;1.73;;;21.30;99.90;;;;;;5017553;28;20025;-58
2023/07/29 11:03:38;;;;;;;3.00;0.93;;;21.40;99.90;;;;;;5019051;28;20557;-57
2023/07/29 11:06:07;;;;;;;2.20;0.73;;;21.10;99.90;;;;;;5017335;28;20033;-59
2023/07/29 11:08:33;;;;;;;1.17;1.08;;;20.80;99.90;;;;;;5017889;28;20029;-59
2023/07/29 11:11:07;;;;;;;1.48;0.80;;;20.60;99.90;;;;;;5017427;28;20617;-59
2023/07/29 11:13:36;;;;;;;1.02;0.80;;;20.70;99.90;;;;;;5018839;28;20674;-58
2023/07/29 11:16:03;;;;;;;3.25;0.70;;;20.90;99.90;;;;;;5017025;28;20041;-60
2023/07/29 11:18:34;;;;;;;2.50;1.17;;;21.20;99.90;;;;;;5018436;28;20087;-59
2023/07/29 11:21:01;;;;;;;1.95;0.90;;;21.40;99.90;;;;;;5016170;28;20026;-59
2023/07/29 11:23:31;;;;;;;2.95;0.73;;;21.60;99.90;;;;;;5017868;28;20036;-59
2023/07/29 11:25:58;;;;;;;2.78;0.80;;;21.70;99.90;;;;;;5017410;28;20037;-60
2023/07/29 11:28:24;;;;;;;1.27;0.60;;;21.70;99.90;;;;;;5014711;28;20026;-59
2023/07/29 11:30:51;;;;;;;1.40;0.60;;;21.80;99.90;;;;;;5016117;28;20022;-57
2023/07/29 11:33:25;;;;;;;1.23;0.65;;;21.70;99.90;;;;;;5014933;28;20037;-58
2023/07/29 11:35:51;;;;;;;1.02;0.60;;;21.50;99.90;;;;;;5016567;28;20554;-57
2023/07/29 11:38:19;;;;;;;1.67;0.80;;;21.30;99.90;;;;;;5014385;28;20540;-57
2023/07/29 11:40:56;;;;;;;4.00;0.70;;;21.20;99.90;;;;;;5015720;28;20386;-59
2023/07/29 11:43:22;;;;;;;1.73;0.85;;;21.20;99.90;;;;;;5012433;28;20053;-57
2023/07/29 11:45:47;;;;;;;1.00;0.73;;;21.40;99.90;;;;;;5012519;28;20057;-58
2023/07/29 11:48:13;;;;;;;2.55;0.80;;;21.60;99.90;;;;;;5016843;28;20548;-57
2023/07/29 11:50:39;;;;;;;3.75;0.75;;;21.90;99.90;;;;;;5019042;28;20026;-57
2023/07/29 11:53:05;;;;;;;0.80;0.70;;;22.30;99.90;;;;;;5022333;28;20030;-59
2023/07/29 11:55:30;;;;;;;0.52;0.50;;;22.60;99.90;;;;;;5020263;28;20029;-58
2023/07/29 11:57:57;;;;;;;10.80;0.80;;;22.70;99.90;;;;;;5020786;28;20397;-58
2023/07/29 12:00:23;;;;;;;4.65;0.90;;;22.70;99.90;;;;;;5019732;28;20034;-59
2023/07/29 12:02:49;;;;;;;0.77;0.55;;;22.60;99.90;;;;;;5019007;28;20014;-59
2023/07/29 12:05:16;;;;;;;2.72;0.60;;;22.50;99.90;;;;;;5021934;28;20458;-58
2023/07/29 12:07:44;;;;;;;0.45;0.40;;;22.40;99.90;;;;;;5017651;28;20030;-59
2023/07/29 12:10:10;;;;;;;1.42;0.50;;;22.30;99.90;;;;;;5019583;28;20025;-59
2023/07/29 12:12:49;;;;;;;0.68;0.55;;;22.30;99.90;;;;;;5018853;28;20030;-59
2023/07/29 12:15:26;;;;;;;0.85;0.63;;;22.20;99.90;;;;;;5019825;28;20087;-57
2023/07/29 12:17:56;;;;;;;1.60;0.60;;;22.30;99.90;;;;;;5019218;28;20120;-58
2023/07/29 12:20:22;;;;;;;0.80;0.70;;;22.50;99.90;;;;;;5024139;28;20030;-57
2023/07/29 12:23:05;;;;;;;2.60;0.75;;;22.70;99.90;;;;;;5020762;28;20095;-59
2023/07/29 12:25:31;;;;;;;0.73;0.50;;;23.00;99.90;;;;;;5016897;28;20037;-59
2023/07/29 12:28:16;;;;;;;1.08;0.60;;;23.10;99.90;;;;;;5019067;28;20103;-59
2023/07/29 12:30:42;;;;;;;0.88;0.60;;;23.10;99.90;;;;;;5017978;28;20633;-58
2023/07/29 12:33:08;;;;;;;1.95;0.60;;;23.00;99.90;;;;;;5017837;28;20099;-58
2023/07/29 12:35:38;;;;;;;0.77;0.77;;;22.90;99.90;;;;;;5017061;28;20037;-58
2023/07/29 12:38:03;;;;;;;0.73;0.50;;;23.00;99.90;;;;;;5017758;28;20755;-59
2023/07/29 12:40:29;;;;;;;0.50;0.50;;;23.20;99.90;;;;;;5022101;28;20034;-59
2023/07/29 12:42:55;;;;;;;1.25;0.70;;;23.10;99.90;;;;;;5019159;28;20034;-58
2023/07/29 12:45:23;;;;;;;1.75;0.70;;;23.00;99.90;;;;;;5019219;28;20037;-58